Detalii statie AFILIU TRANS MIZIL [00001982]

Toti senzorii

Date Temperatura solului [C]Precipitatii [mm]Voltaj baterie [mV]Leaf Wetness [Min]HC Air temperature [C]HC Relative humidity [%]Punctul de roua [C]
medieminmaxsumaultimatimpmedieminmaxmediemediemin
2017-06-25 06:00:00 0 6914 18.38 17.34 19.99 96.81 17.7 17.3
2017-06-25 07:00:00 0 7010 21.48 20.21 22.77 84.58 18.6 18.3
2017-06-25 08:00:00 0 7098 23.55 22.72 24.6 77.26 19.2 18.7
2017-06-25 09:00:00 0 7206 25.45 24.37 26.27 72.2 19.9 19.3
2017-06-25 10:00:00 0 7216 27.29 25.89 28.11 66.27 20.2 19.3
2017-06-25 11:00:00 0 7216 29.08 27.94 30.36 53.56 18.3 16.8
2017-06-25 12:00:00 0 7216 30.26 29.45 30.96 39.61 14.6 13.1
2017-06-25 13:00:00 0 7216 31.32 30.8 32.26 36.7 14.4 13.2
2017-06-25 14:00:00 0 7216 31.34 30.63 32.24 36.46 14.4 13.6
2017-06-25 15:00:00 0 7216 31.74 30.99 32.34 36.03 14.5 13.6
2017-06-25 16:00:00 0 7216 32.85 31.81 33.77 36.63 15.8 14.9
2017-06-25 17:00:00 0 7226 32.09 31.25 33.38 37.96 15.7 15.1
2017-06-25 18:00:00 0 7206 31.1 30.68 31.83 40.06 15.6 15.2
2017-06-25 19:00:00 0 7196 29.67 28.49 30.56 46.56 16.7 15
2017-06-25 20:00:00 0 6874 26 23.69 28.19 66.79 19 17.6
2017-06-25 21:00:00 0 6864 22.44 21.48 23.55 87.1 20 19.7
2017-06-25 22:00:00 0 6864 21.51 20.76 22.59 92.07 20 19.3
2017-06-25 23:00:00 0 6854 20.78 20.19 21.27 99.85 20.6 20.1
2017-06-26 00:00:00 0 6854 20.08 19.32 20.8 99.92 20 19.3
2017-06-26 01:00:00 0 6844 19.14 18.75 19.63 100 19.1 18.7
2017-06-26 02:00:00 0 6844 18.29 17.91 18.78 100 18.2 17.9
2017-06-26 03:00:00 0 6854 17.35 16.87 17.89 100 17.3 16.8
2017-06-26 04:00:00 0 6844 16.85 16.57 17.21 100 16.8 16.5
2017-06-26 05:00:00 0 6844 16.93 16.32 17.45 100 16.8 16.3
2017-06-26 06:00:00 0 6914 17.29 16.71 18.25 100 17.2 16.7
2017-06-26 07:00:00 0 7000 19.37 18.29 20.55 100 19.3 18.2
2017-06-26 08:00:00 0 7040 23.19 20.75 24.95 92.14 21.7 20.7
2017-06-26 09:00:00 0 7216 26.51 25.44 27.81 78.49 22.3 21.7
2017-06-26 10:00:00 0 7226 28.46 27.31 29.32 68.28 21.8 21.3
2017-06-26 11:00:00 0 7216 29.73 29.25 30.48 60.81 21.1 20.1
2017-06-26 12:00:00 0 7216 31.51 30.49 32.08 51.23 19.9 19
2017-06-26 13:00:00 0 7216 32.23 31.23 33.91 48.02 19.6 18.5
2017-06-26 14:00:00 0 7216 32.46 31.88 33.18 45.43 18.9 18.2
2017-06-26 15:00:00 0 7216 32.87 32.27 33.91 42.46 18.1 16.4
2017-06-26 16:00:00 0 7216 33.12 32.53 34 39.41 17.2 16.4
2017-06-26 17:00:00 0 7216 33.1 32.69 33.89 39.59 17.2 16.1
2017-06-26 18:00:00 0 7206 32.14 31.61 32.71 41.96 17.4 16.8
2017-06-26 19:00:00 0 7196 30.78 29.83 31.5 51.11 19.2 17.8